sensor_id;sensor_type;location;lat;lon;timestamp;pressure;altitude;pressure_sealevel;temperature;humidity
66887;BME280;67239;51.680;5.976;2024-02-14T00:00:54;101295.63;;;8.06;100.00
66887;BME280;67239;51.680;5.976;2024-02-14T00:03:22;101296.50;;;8.06;100.00
66887;BME280;67239;51.680;5.976;2024-02-14T00:05:51;101285.97;;;8.08;100.00
66887;BME280;67239;51.680;5.976;2024-02-14T00:08:19;101282.50;;;8.07;100.00
66887;BME280;67239;51.680;5.976;2024-02-14T00:10:47;101279.88;;;8.07;100.00
66887;BME280;67239;51.680;5.976;2024-02-14T00:13:15;101273.72;;;8.08;100.00
66887;BME280;67239;51.680;5.976;2024-02-14T00:15:45;101272.81;;;8.09;100.00
66887;BME280;67239;51.680;5.976;2024-02-14T00:18:13;101272.81;;;8.09;100.00
66887;BME280;67239;51.680;5.976;2024-02-14T00:20:42;101280.69;;;8.09;100.00
66887;BME280;67239;51.680;5.976;2024-02-14T00:23:09;101270.19;;;8.11;100.00
66887;BME280;67239;51.680;5.976;2024-02-14T00:25:38;101271.91;;;8.11;100.00
66887;BME280;67239;51.680;5.976;2024-02-14T00:28:05;101264.94;;;8.09;100.00
66887;BME280;67239;51.680;5.976;2024-02-14T00:30:32;101268.41;;;8.12;100.00
66887;BME280;67239;51.680;5.976;2024-02-14T00:33:01;101269.28;;;8.12;100.00
66887;BME280;67239;51.680;5.976;2024-02-14T00:35:28;101259.63;;;8.14;100.00
66887;BME280;67239;51.680;5.976;2024-02-14T00:37:56;101252.59;;;8.16;100.00
66887;BME280;67239;51.680;5.976;2024-02-14T00:40:23;101249.97;;;8.18;100.00
66887;BME280;67239;51.680;5.976;2024-02-14T00:42:50;101253.44;;;8.18;100.00
66887;BME280;67239;51.680;5.976;2024-02-14T00:45:17;101253.41;;;8.20;100.00
66887;BME280;67239;51.680;5.976;2024-02-14T00:47:44;101244.66;;;8.22;100.00
66887;BME280;67239;51.680;5.976;2024-02-14T00:50:12;101253.38;;;8.23;100.00
66887;BME280;67239;51.680;5.976;2024-02-14T00:52:40;101242.88;;;8.23;100.00
66887;BME280;67239;51.680;5.976;2024-02-14T00:55:08;101234.97;;;8.24;100.00
66887;BME280;67239;51.680;5.976;2024-02-14T00:57:35;101239.31;;;8.27;100.00
66887;BME280;67239;51.680;5.976;2024-02-14T01:00:03;101228.81;;;8.27;100.00
66887;BME280;67239;51.680;5.976;2024-02-14T01:02:33;101243.66;;;8.30;100.00
66887;BME280;67239;51.680;5.976;2024-02-14T01:05:00;101234.84;;;8.32;100.00
66887;BME280;67239;51.680;5.976;2024-02-14T01:07:27;101222.53;;;8.36;100.00
66887;BME280;67239;51.680;5.976;2024-02-14T01:09:54;101226.91;;;8.37;100.00
66887;BME280;67239;51.680;5.976;2024-02-14T01:12:21;101232.16;;;8.38;100.00
66887;BME280;67239;51.680;5.976;2024-02-14T01:14:49;101235.63;;;8.39;100.00
66887;BME280;67239;51.680;5.976;2024-02-14T01:17:16;101225.97;;;8.41;100.00
66887;BME280;67239;51.680;5.976;2024-02-14T01:19:43;101229.47;;;8.42;100.00
66887;BME280;67239;51.680;5.976;2024-02-14T01:22:10;101229.47;;;8.43;100.00
66887;BME280;67239;51.680;5.976;2024-02-14T01:24:38;101229.41;;;8.48;100.00
66887;BME280;67239;51.680;5.976;2024-02-14T01:27:06;101234.69;;;8.48;100.00
66887;BME280;67239;51.680;5.976;2024-02-14T01:29:35;101230.28;;;8.47;100.00
66887;BME280;67239;51.680;5.976;2024-02-14T01:32:02;101225.91;;;8.49;100.00
66887;BME280;67239;51.680;5.976;2024-02-14T01:34:31;101236.34;;;8.52;100.00
66887;BME280;67239;51.680;5.976;2024-02-14T01:36:58;101238.13;;;8.51;100.00
66887;BME280;67239;51.680;5.976;2024-02-14T01:39:26;101242.50;;;8.52;100.00
66887;BME280;67239;51.680;5.976;2024-02-14T01:41:53;101237.19;;;8.54;100.00
66887;BME280;67239;51.680;5.976;2024-02-14T01:44:20;101238.91;;;8.57;100.00
66887;BME280;67239;51.680;5.976;2024-02-14T01:46:47;101238.00;;;8.58;100.00
66887;BME280;67239;51.680;5.976;2024-02-14T01:49:15;101239.72;;;8.60;100.00
66887;BME280;67239;51.680;5.976;2024-02-14T01:51:44;101232.69;;;8.62;100.00
66887;BME280;67239;51.680;5.976;2024-02-14T01:54:14;101230.91;;;8.64;100.00
66887;BME280;67239;51.680;5.976;2024-02-14T01:56:44;101233.53;;;8.64;100.00
66887;BME280;67239;51.680;5.976;2024-02-14T01:59:13;101230.84;;;8.69;100.00
66887;BME280;67239;51.680;5.976;2024-02-14T02:01:42;101232.59;;;8.68;100.00
66887;BME280;67239;51.680;5.976;2024-02-14T02:04:09;101229.94;;;8.70;100.00
66887;BME280;67239;51.680;5.976;2024-02-14T02:06:38;101227.28;;;8.73;100.00
66887;BME280;67239;51.680;5.976;2024-02-14T02:09:08;101231.59;;;8.76;100.00
66887;BME280;67239;51.680;5.976;2024-02-14T02:11:48;101227.19;;;8.78;100.00
66887;BME280;67239;51.680;5.976;2024-02-14T02:14:16;101221.94;;;8.78;100.00
66887;BME280;67239;51.680;5.976;2024-02-14T02:16:44;101225.41;;;8.80;100.00
66887;BME280;67239;51.680;5.976;2024-02-14T02:19:12;101224.50;;;8.81;100.00
66887;BME280;67239;51.680;5.976;2024-02-14T02:21:41;101217.44;;;8.84;100.00
66887;BME280;67239;51.680;5.976;2024-02-14T02:24:10;101218.25;;;8.86;100.00
66887;BME280;67239;51.680;5.976;2024-02-14T02:26:37;101218.25;;;8.88;100.00
66887;BME280;67239;51.680;5.976;2024-02-14T02:29:05;101223.44;;;8.91;100.00
66887;BME280;67239;51.680;5.976;2024-02-14T02:31:33;101223.44;;;8.93;100.00
66887;BME280;67239;51.680;5.976;2024-02-14T02:34:00;101226.06;;;8.93;100.00
66887;BME280;67239;51.680;5.976;2024-02-14T02:36:28;101231.31;;;8.93;100.00
66887;BME280;67239;51.680;5.976;2024-02-14T02:38:56;101224.28;;;8.95;100.00
66887;BME280;67239;51.680;5.976;2024-02-14T02:41:25;101228.66;;;8.94;100.00
66887;BME280;67239;51.680;5.976;2024-02-14T02:43:52;101224.28;;;8.93;100.00
66887;BME280;67239;51.680;5.976;2024-02-14T02:46:21;101232.16;;;8.95;100.00
66887;BME280;67239;51.680;5.976;2024-02-14T02:48:49;101228.69;;;8.93;100.00
66887;BME280;67239;51.680;5.976;2024-02-14T02:51:17;101221.66;;;8.93;100.00
66887;BME280;67239;51.680;5.976;2024-02-14T02:53:44;101226.06;;;8.93;100.00
66887;BME280;67239;51.680;5.976;2024-02-14T02:56:12;101227.81;;;8.94;100.00
66887;BME280;67239;51.680;5.976;2024-02-14T02:58:39;101219.03;;;8.93;100.00
66887;BME280;67239;51.680;5.976;2024-02-14T03:01:10;101226.00;;;8.96;100.00
66887;BME280;67239;51.680;5.976;2024-02-14T03:03:38;101224.28;;;8.95;100.00
66887;BME280;67239;51.680;5.976;2024-02-14T03:06:06;101226.84;;;8.98;100.00
66887;BME280;67239;51.680;5.976;2024-02-14T03:08:33;101218.09;;;8.97;100.00
66887;BME280;67239;51.680;5.976;2024-02-14T03:11:06;101227.72;;;8.97;100.00
66887;BME280;67239;51.680;5.976;2024-02-14T03:13:34;101231.25;;;8.97;100.00
66887;BME280;67239;51.680;5.976;2024-02-14T03:16:03;101230.34;;;8.97;100.00
66887;BME280;67239;51.680;5.976;2024-02-14T03:18:31;101220.72;;;8.97;100.00
66887;BME280;67239;51.680;5.976;2024-02-14T03:20:59;101224.25;;;8.96;100.00
66887;BME280;67239;51.680;5.976;2024-02-14T03:23:26;101233.88;;;8.97;100.00
66887;BME280;67239;51.680;5.976;2024-02-14T03:25:54;101238.25;;;8.98;100.00
66887;BME280;67239;51.680;5.976;2024-02-14T03:28:21;101235.63;;;8.98;100.00
66887;BME280;67239;51.680;5.976;2024-02-14T03:30:49;101230.34;;;8.98;100.00
66887;BME280;67239;51.680;5.976;2024-02-14T03:33:16;101232.94;;;9.00;100.00
66887;BME280;67239;51.680;5.976;2024-02-14T03:35:43;101242.59;;;8.99;100.00
66887;BME280;67239;51.680;5.976;2024-02-14T03:38:10;101229.47;;;8.99;100.00
66887;BME280;67239;51.680;5.976;2024-02-14T03:40:37;101241.69;;;9.02;100.00
66887;BME280;67239;51.680;5.976;2024-02-14T03:43:05;101239.06;;;9.02;100.00
66887;BME280;67239;51.680;5.976;2024-02-14T03:45:32;101236.38;;;9.04;100.00
66887;BME280;67239;51.680;5.976;2024-02-14T03:47:59;101237.28;;;9.04;100.00
66887;BME280;67239;51.680;5.976;2024-02-14T03:50:27;101237.22;;;9.06;100.00
66887;BME280;67239;51.680;5.976;2024-02-14T03:52:55;101242.44;;;9.07;100.00
66887;BME280;67239;51.680;5.976;2024-02-14T03:55:22;101239.78;;;9.10;100.00
66887;BME280;67239;51.680;5.976;2024-02-14T03:57:50;101238.84;;;9.13;100.00
66887;BME280;67239;51.680;5.976;2024-02-14T04:00:18;101245.00;;;9.13;100.00
66887;BME280;67239;51.680;5.976;2024-02-14T04:02:45;101247.53;;;9.18;100.00
66887;BME280;67239;51.680;5.976;2024-02-14T04:05:15;101251.91;;;9.19;100.00
66887;BME280;67239;51.680;5.976;2024-02-14T04:07:43;101251.88;;;9.21;100.00
66887;BME280;67239;51.680;5.976;2024-02-14T04:10:15;101251.88;;;9.21;100.00
66887;BME280;67239;51.680;5.976;2024-02-14T04:12:43;101251.81;;;9.24;100.00
66887;BME280;67239;51.680;5.976;2024-02-14T04:15:11;101257.03;;;9.25;100.00
66887;BME280;67239;51.680;5.976;2024-02-14T04:17:41;101254.41;;;9.25;100.00
66887;BME280;67239;51.680;5.976;2024-02-14T04:20:09;101255.31;;;9.24;100.00
66887;BME280;67239;51.680;5.976;2024-02-14T04:22:36;101258.78;;;9.26;100.00
66887;BME280;67239;51.680;5.976;2024-02-14T04:25:04;101267.53;;;9.28;100.00
66887;BME280;67239;51.680;5.976;2024-02-14T04:27:31;101265.75;;;9.29;100.00
66887;BME280;67239;51.680;5.976;2024-02-14T04:30:00;101264.81;;;9.31;100.00
66887;BME280;67239;51.680;5.976;2024-02-14T04:32:28;101261.28;;;9.32;100.00
66887;BME280;67239;51.680;5.976;2024-02-14T04:34:56;101254.25;;;9.35;100.00
66887;BME280;67239;51.680;5.976;2024-02-14T04:37:23;101264.72;;;9.38;100.00
66887;BME280;67239;51.680;5.976;2024-02-14T04:39:50;101265.56;;;9.38;100.00
66887;BME280;67239;51.680;5.976;2024-02-14T04:42:18;101272.56;;;9.39;100.00
66887;BME280;67239;51.680;5.976;2024-02-14T04:44:45;101268.16;;;9.41;100.00
66887;BME280;67239;51.680;5.976;2024-02-14T04:47:12;101260.25;;;9.41;100.00
66887;BME280;67239;51.680;5.976;2024-02-14T04:49:39;101273.38;;;9.44;100.00
66887;BME280;67239;51.680;5.976;2024-02-14T04:52:07;101271.59;;;9.45;100.00
66887;BME280;67239;51.680;5.976;2024-02-14T04:54:35;101287.34;;;9.46;100.00
66887;BME280;67239;51.680;5.976;2024-02-14T04:57:02;101283.78;;;9.51;100.00
66887;BME280;67239;51.680;5.976;2024-02-14T04:59:31;101282.91;;;9.50;100.00
66887;BME280;67239;51.680;5.976;2024-02-14T05:01:58;101288.19;;;9.48;100.00
66887;BME280;67239;51.680;5.976;2024-02-14T05:04:25;101284.66;;;9.50;100.00
66887;BME280;67239;51.680;5.976;2024-02-14T05:06:52;101285.56;;;9.50;100.00
66887;BME280;67239;51.680;5.976;2024-02-14T05:09:25;101300.47;;;9.50;100.00
66887;BME280;67239;51.680;5.976;2024-02-14T05:11:52;101293.47;;;9.48;100.00
66887;BME280;67239;51.680;5.976;2024-02-14T05:14:20;101291.75;;;9.46;100.00
66887;BME280;67239;51.680;5.976;2024-02-14T05:16:47;101305.81;;;9.45;100.00
66887;BME280;67239;51.680;5.976;2024-02-14T05:19:14;101295.31;;;9.43;100.00
66887;BME280;67239;51.680;5.976;2024-02-14T05:21:42;101304.13;;;9.42;100.00
66887;BME280;67239;51.680;5.976;2024-02-14T05:24:09;101297.16;;;9.38;100.00
66887;BME280;67239;51.680;5.976;2024-02-14T05:26:36;101297.19;;;9.37;100.00
66887;BME280;67239;51.680;5.976;2024-02-14T05:29:03;101298.09;;;9.36;100.00
66887;BME280;67239;51.680;5.976;2024-02-14T05:31:43;101304.19;;;9.36;100.00
66887;BME280;67239;51.680;5.976;2024-02-14T05:34:11;101302.44;;;9.37;100.00
66887;BME280;67239;51.680;5.976;2024-02-14T05:36:39;101311.19;;;9.39;100.00
66887;BME280;67239;51.680;5.976;2024-02-14T05:39:06;101306.81;;;9.38;100.00
66887;BME280;67239;51.680;5.976;2024-02-14T05:41:34;101308.53;;;9.40;100.00
66887;BME280;67239;51.680;5.976;2024-02-14T05:44:02;101306.78;;;9.41;100.00
66887;BME280;67239;51.680;5.976;2024-02-14T05:46:30;101310.25;;;9.41;100.00
66887;BME280;67239;51.680;5.976;2024-02-14T05:48:58;101314.59;;;9.44;100.00
66887;BME280;67239;51.680;5.976;2024-02-14T05:51:25;101318.13;;;9.43;100.00
66887;BME280;67239;51.680;5.976;2024-02-14T05:53:52;101326.88;;;9.45;100.00
66887;BME280;67239;51.680;5.976;2024-02-14T05:56:20;101325.13;;;9.44;100.00
66887;BME280;67239;51.680;5.976;2024-02-14T05:58:47;101322.50;;;9.44;100.00
66887;BME280;67239;51.680;5.976;2024-02-14T06:01:14;101318.13;;;9.43;100.00
66887;BME280;67239;51.680;5.976;2024-02-14T06:03:41;101319.91;;;9.42;100.00
66887;BME280;67239;51.680;5.976;2024-02-14T06:06:10;101331.28;;;9.44;100.00
66887;BME280;67239;51.680;5.976;2024-02-14T06:08:38;101326.91;;;9.43;100.00
66887;BME280;67239;51.680;5.976;2024-02-14T06:11:05;101324.28;;;9.43;100.00
66887;BME280;67239;51.680;5.976;2024-02-14T06:13:33;101325.94;;;9.47;100.00
66887;BME280;67239;51.680;5.976;2024-02-14T06:16:02;101326.78;;;9.51;100.00
66887;BME280;67239;51.680;5.976;2024-02-14T06:18:30;101328.47;;;9.54;100.00
66887;BME280;67239;51.680;5.976;2024-02-14T06:20:57;101326.69;;;9.56;100.00
66887;BME280;67239;51.680;5.976;2024-02-14T06:23:24;101325.72;;;9.60;100.00
66887;BME280;67239;51.680;5.976;2024-02-14T06:25:52;101337.97;;;9.61;100.00
66887;BME280;67239;51.680;5.976;2024-02-14T06:28:20;101339.69;;;9.63;100.00
66887;BME280;67239;51.680;5.976;2024-02-14T06:30:47;101338.78;;;9.66;100.00
66887;BME280;67239;51.680;5.976;2024-02-14T06:33:14;101342.22;;;9.68;100.00
66887;BME280;67239;51.680;5.976;2024-02-14T06:35:42;101351.88;;;9.69;100.00
66887;BME280;67239;51.680;5.976;2024-02-14T06:38:09;101349.22;;;9.69;100.00
66887;BME280;67239;51.680;5.976;2024-02-14T06:40:36;101357.13;;;9.71;100.00
66887;BME280;67239;51.680;5.976;2024-02-14T06:43:03;101354.47;;;9.72;100.00
66887;BME280;67239;51.680;5.976;2024-02-14T06:45:33;101362.34;;;9.72;100.00
66887;BME280;67239;51.680;5.976;2024-02-14T06:48:00;101364.09;;;9.73;100.00
66887;BME280;67239;51.680;5.976;2024-02-14T06:50:27;101364.09;;;9.73;100.00
66887;BME280;67239;51.680;5.976;2024-02-14T06:52:56;101368.50;;;9.71;100.00
66887;BME280;67239;51.680;5.976;2024-02-14T06:55:28;101356.19;;;9.72;100.00
66887;BME280;67239;51.680;5.976;2024-02-14T06:57:58;101361.47;;;9.72;100.00
66887;BME280;67239;51.680;5.976;2024-02-14T07:00:26;101367.56;;;9.74;100.00
66887;BME280;67239;51.680;5.976;2024-02-14T07:02:55;101361.47;;;9.73;100.00
66887;BME280;67239;51.680;5.976;2024-02-14T07:05:22;101371.09;;;9.74;100.00
66887;BME280;67239;51.680;5.976;2024-02-14T07:07:50;101377.22;;;9.76;100.00
66887;BME280;67239;51.680;5.976;2024-02-14T07:10:17;101378.91;;;9.79;100.00
66887;BME280;67239;51.680;5.976;2024-02-14T07:12:44;101378.91;;;9.79;100.00
66887;BME280;67239;51.680;5.976;2024-02-14T07:15:11;101380.63;;;9.82;100.00
66887;BME280;67239;51.680;5.976;2024-02-14T07:17:38;101379.72;;;9.83;100.00
66887;BME280;67239;51.680;5.976;2024-02-14T07:20:06;101384.09;;;9.84;100.00
66887;BME280;67239;51.680;5.976;2024-02-14T07:22:36;101376.19;;;9.84;100.00
66887;BME280;67239;51.680;5.976;2024-02-14T07:25:03;101384.09;;;9.84;100.00
66887;BME280;67239;51.680;5.976;2024-02-14T07:27:31;101382.31;;;9.84;100.00
66887;BME280;67239;51.680;5.976;2024-02-14T07:29:59;101384.06;;;9.85;100.00
66887;BME280;67239;51.680;5.976;2024-02-14T07:32:26;101376.16;;;9.85;100.00
66887;BME280;67239;51.680;5.976;2024-02-14T07:34:54;101379.69;;;9.86;100.00
66887;BME280;67239;51.680;5.976;2024-02-14T07:37:22;101382.25;;;9.87;100.00
66887;BME280;67239;51.680;5.976;2024-02-14T07:39:49;101375.22;;;9.88;100.00
66887;BME280;67239;51.680;5.976;2024-02-14T07:42:16;101377.84;;;9.89;100.00
66887;BME280;67239;51.680;5.976;2024-02-14T07:44:43;101381.31;;;9.91;100.00
66887;BME280;67239;51.680;5.976;2024-02-14T07:47:13;101380.41;;;9.92;100.00
66887;BME280;67239;51.680;5.976;2024-02-14T07:49:43;101372.50;;;9.92;100.00
66887;BME280;67239;51.680;5.976;2024-02-14T07:52:10;101380.38;;;9.94;100.00
66887;BME280;67239;51.680;5.976;2024-02-14T07:54:37;101380.34;;;9.95;100.00
66887;BME280;67239;51.680;5.976;2024-02-14T07:57:05;101383.78;;;10.01;100.00
66887;BME280;67239;51.680;5.976;2024-02-14T07:59:34;101379.28;;;10.06;100.00
66887;BME280;67239;51.680;5.976;2024-02-14T08:02:01;101394.13;;;10.10;100.00
66887;BME280;67239;51.680;5.976;2024-02-14T08:04:29;101392.34;;;10.12;100.00
66887;BME280;67239;51.680;5.976;2024-02-14T08:06:56;101391.47;;;10.12;100.00
66887;BME280;67239;51.680;5.976;2024-02-14T08:09:23;101390.56;;;10.13;100.00
66887;BME280;67239;51.680;5.976;2024-02-14T08:11:50;101398.47;;;10.13;100.00
66887;BME280;67239;51.680;5.976;2024-02-14T08:14:20;101401.16;;;10.11;100.00
66887;BME280;67239;51.680;5.976;2024-02-14T08:16:47;101401.16;;;10.09;100.00
66887;BME280;67239;51.680;5.976;2024-02-14T08:19:14;101398.50;;;10.11;100.00
66887;BME280;67239;51.680;5.976;2024-02-14T08:21:42;101408.16;;;10.10;100.00
66887;BME280;67239;51.680;5.976;2024-02-14T08:24:10;101398.53;;;10.09;100.00
66887;BME280;67239;51.680;5.976;2024-02-14T08:26:39;101402.88;;;10.12;100.00
66887;BME280;67239;51.680;5.976;2024-02-14T08:29:06;101404.59;;;10.13;100.00
66887;BME280;67239;51.680;5.976;2024-02-14T08:31:33;101405.44;;;10.15;100.00
66887;BME280;67239;51.680;5.976;2024-02-14T08:34:01;101410.66;;;10.18;100.00
66887;BME280;67239;51.680;5.976;2024-02-14T08:36:29;101406.19;;;10.22;100.00
66887;BME280;67239;51.680;5.976;2024-02-14T08:38:56;101407.03;;;10.24;100.00
66887;BME280;67239;51.680;5.976;2024-02-14T08:41:23;101409.63;;;10.27;100.00
66887;BME280;67239;51.680;5.976;2024-02-14T08:43:50;101409.56;;;10.29;100.00
66887;BME280;67239;51.680;5.976;2024-02-14T08:46:18;101406.91;;;10.30;100.00
66887;BME280;67239;51.680;5.976;2024-02-14T08:48:46;101404.25;;;10.30;100.00
66887;BME280;67239;51.680;5.976;2024-02-14T08:51:16;101411.31;;;10.30;100.00
66887;BME280;67239;51.680;5.976;2024-02-14T08:53:44;101417.44;;;10.30;100.00
66887;BME280;67239;51.680;5.976;2024-02-14T08:56:13;101408.69;;;10.30;100.00
66887;BME280;67239;51.680;5.976;2024-02-14T08:58:41;101413.84;;;10.34;100.00
66887;BME280;67239;51.680;5.976;2024-02-14T09:01:09;101414.69;;;10.38;100.00
66887;BME280;67239;51.680;5.976;2024-02-14T09:03:42;101423.44;;;10.40;100.00
66887;BME280;67239;51.680;5.976;2024-02-14T09:06:16;101419.00;;;10.42;100.00
66887;BME280;67239;51.680;5.976;2024-02-14T09:08:47;101424.19;;;10.47;100.00
66887;BME280;67239;51.680;5.976;2024-02-14T09:11:15;101425.94;;;10.46;100.00
66887;BME280;67239;51.680;5.976;2024-02-14T09:13:42;101427.63;;;10.49;100.00
66887;BME280;67239;51.680;5.976;2024-02-14T09:16:10;101425.75;;;10.55;100.00
66887;BME280;67239;51.680;5.976;2024-02-14T09:18:38;101417.81;;;10.57;100.00
66887;BME280;67239;51.680;5.976;2024-02-14T09:21:06;101422.13;;;10.61;100.00
66887;BME280;67239;51.680;5.976;2024-02-14T09:23:34;101432.56;;;10.66;100.00
66887;BME280;67239;51.680;5.976;2024-02-14T09:26:01;101434.19;;;10.71;100.00
66887;BME280;67239;51.680;5.976;2024-02-14T09:28:29;101428.00;;;10.74;100.00
66887;BME280;67239;51.680;5.976;2024-02-14T09:30:56;101437.63;;;10.75;100.00
66887;BME280;67239;51.680;5.976;2024-02-14T09:33:24;101442.91;;;10.77;100.00
66887;BME280;67239;51.680;5.976;2024-02-14T09:35:51;101450.78;;;10.78;100.00
66887;BME280;67239;51.680;5.976;2024-02-14T09:38:20;101450.72;;;10.80;100.00
66887;BME280;67239;51.680;5.976;2024-02-14T09:40:50;101455.09;;;10.81;100.00
66887;BME280;67239;51.680;5.976;2024-02-14T09:43:43;101462.03;;;10.86;100.00
66887;BME280;67239;51.680;5.976;2024-02-14T09:46:13;101450.53;;;10.89;100.00
66887;BME280;67239;51.680;5.976;2024-02-14T09:48:45;101455.75;;;10.92;100.00
66887;BME280;67239;51.680;5.976;2024-02-14T09:51:16;101447.78;;;10.94;100.00
66887;BME280;67239;51.680;5.976;2024-02-14T09:53:47;101447.72;;;10.98;100.00
66887;BME280;67239;51.680;5.976;2024-02-14T09:56:27;101441.41;;;11.04;100.00
66887;BME280;67239;51.680;5.976;2024-02-14T09:59:04;101449.25;;;11.07;100.00
66887;BME280;67239;51.680;5.976;2024-02-14T10:01:40;101460.66;;;11.09;100.00
66887;BME280;67239;51.680;5.976;2024-02-14T10:04:07;101460.66;;;11.09;100.00
66887;BME280;67239;51.680;5.976;2024-02-14T10:06:34;101467.66;;;11.10;100.00
66887;BME280;67239;51.680;5.976;2024-02-14T10:09:01;101461.50;;;11.10;100.00
66887;BME280;67239;51.680;5.976;2024-02-14T10:11:31;101463.22;;;11.12;100.00
66887;BME280;67239;51.680;5.976;2024-02-14T10:14:00;101467.56;;;11.15;100.00
66887;BME280;67239;51.680;5.976;2024-02-14T10:16:31;101470.94;;;11.20;100.00
66887;BME280;67239;51.680;5.976;2024-02-14T10:18:58;101469.94;;;11.26;100.00
66887;BME280;67239;51.680;5.976;2024-02-14T10:21:25;101462.81;;;11.31;100.00
66887;BME280;67239;51.680;5.976;2024-02-14T10:23:59;101461.63;;;11.43;100.00
66887;BME280;67239;51.680;5.976;2024-02-14T10:26:28;101460.47;;;11.55;100.00
66887;BME280;67239;51.680;5.976;2024-02-14T10:28:57;101461.91;;;11.68;100.00
66887;BME280;67239;51.680;5.976;2024-02-14T10:31:27;101477.63;;;11.73;100.00
66887;BME280;67239;51.680;5.976;2024-02-14T10:33:55;101474.81;;;11.80;100.00
66887;BME280;67239;51.680;5.976;2024-02-14T10:36:24;101471.19;;;11.85;100.00
66887;BME280;67239;51.680;5.976;2024-02-14T10:38:51;101477.03;;;11.96;100.00
66887;BME280;67239;51.680;5.976;2024-02-14T10:41:18;101481.19;;;12.08;100.00
66887;BME280;67239;51.680;5.976;2024-02-14T10:43:46;101482.81;;;12.14;100.00
66887;BME280;67239;51.680;5.976;2024-02-14T10:46:20;101484.56;;;12.13;100.00
66887;BME280;67239;51.680;5.976;2024-02-14T10:48:53;101490.00;;;12.07;100.00
66887;BME280;67239;51.680;5.976;2024-02-14T10:51:35;101498.09;;;12.01;100.00
66887;BME280;67239;51.680;5.976;2024-02-14T10:54:04;101498.28;;;11.93;100.00
66887;BME280;67239;51.680;5.976;2024-02-14T10:56:39;101492.38;;;11.81;100.00
66887;BME280;67239;51.680;5.976;2024-02-14T10:59:18;101498.75;;;11.74;100.00
66887;BME280;67239;51.680;5.976;2024-02-14T11:01:48;101492.63;;;11.72;100.00
66887;BME280;67239;51.680;5.976;2024-02-14T11:04:16;101491.72;;;11.72;100.00
66887;BME280;67239;51.680;5.976;2024-02-14T11:06:48;101488.19;;;11.73;100.00
66887;BME280;67239;51.680;5.976;2024-02-14T11:09:22;101480.31;;;11.71;100.00
66887;BME280;67239;51.680;5.976;2024-02-14T11:12:00;101484.66;;;11.74;100.00
66887;BME280;67239;51.680;5.976;2024-02-14T11:14:32;101482.84;;;11.76;100.00
66887;BME280;67239;51.680;5.976;2024-02-14T11:17:02;101484.59;;;11.77;100.00
66887;BME280;67239;51.680;5.976;2024-02-14T11:19:31;101480.94;;;11.81;100.00
66887;BME280;67239;51.680;5.976;2024-02-14T11:22:13;101480.81;;;11.86;100.00
66887;BME280;67239;51.680;5.976;2024-02-14T11:24:48;101478.88;;;11.94;100.00
66887;BME280;67239;51.680;5.976;2024-02-14T11:27:18;101459.38;;;12.00;100.00
66887;BME280;67239;51.680;5.976;2024-02-14T11:30:00;101466.06;;;12.13;100.00
66887;BME280;67239;51.680;5.976;2024-02-14T11:32:31;101479.00;;;12.24;100.00
66887;BME280;67239;51.680;5.976;2024-02-14T11:34:59;101474.41;;;12.31;100.00
66887;BME280;67239;51.680;5.976;2024-02-14T11:37:30;101474.38;;;12.32;100.00
66887;BME280;67239;51.680;5.976;2024-02-14T11:40:01;101464.69;;;12.31;100.00
66887;BME280;67239;51.680;5.976;2024-02-14T11:42:29;101469.00;;;12.35;100.00
66887;BME280;67239;51.680;5.976;2024-02-14T11:44:57;101461.59;;;12.47;100.00
66887;BME280;67239;51.680;5.976;2024-02-14T11:47:25;101457.78;;;12.57;100.00
66887;BME280;67239;51.680;5.976;2024-02-14T11:49:52;101459.38;;;12.64;100.00
66887;BME280;67239;51.680;5.976;2024-02-14T11:52:20;101460.00;;;12.72;100.00
66887;BME280;67239;51.680;5.976;2024-02-14T11:54:47;101462.56;;;12.76;100.00
66887;BME280;67239;51.680;5.976;2024-02-14T11:57:19;101455.44;;;12.78;100.00
66887;BME280;67239;51.680;5.976;2024-02-14T11:59:49;101463.38;;;12.78;100.00
66887;BME280;67239;51.680;5.976;2024-02-14T12:02:19;101452.00;;;12.74;100.00
66887;BME280;67239;51.680;5.976;2024-02-14T12:04:48;101448.53;;;12.72;100.00
66887;BME280;67239;51.680;5.976;2024-02-14T12:07:18;101452.00;;;12.74;100.00
66887;BME280;67239;51.680;5.976;2024-02-14T12:09:45;101449.28;;;12.77;100.00
66887;BME280;67239;51.680;5.976;2024-02-14T12:12:12;101454.53;;;12.79;100.00
66887;BME280;67239;51.680;5.976;2024-02-14T12:14:40;101444.69;;;12.84;100.00
66887;BME280;67239;51.680;5.976;2024-02-14T12:17:07;101450.81;;;12.86;100.00
66887;BME280;67239;51.680;5.976;2024-02-14T12:19:34;101450.00;;;12.82;100.00
66887;BME280;67239;51.680;5.976;2024-02-14T12:22:02;101446.59;;;12.79;100.00
66887;BME280;67239;51.680;5.976;2024-02-14T12:24:29;101452.00;;;12.76;100.00
66887;BME280;67239;51.680;5.976;2024-02-14T12:26:57;101452.97;;;12.71;100.00
66887;BME280;67239;51.680;5.976;2024-02-14T12:29:24;101447.81;;;12.67;100.00
66887;BME280;67239;51.680;5.976;2024-02-14T12:32:03;101448.94;;;12.60;100.00
66887;BME280;67239;51.680;5.976;2024-02-14T12:34:32;101442.94;;;12.53;100.00
66887;BME280;67239;51.680;5.976;2024-02-14T12:37:00;101442.25;;;12.46;100.00
66887;BME280;67239;51.680;5.976;2024-02-14T12:39:28;101452.91;;;12.43;100.00
66887;BME280;67239;51.680;5.976;2024-02-14T12:41:55;101452.25;;;12.35;100.00
66887;BME280;67239;51.680;5.976;2024-02-14T12:44:23;101455.03;;;12.30;100.00
66887;BME280;67239;51.680;5.976;2024-02-14T12:46:50;101454.31;;;12.23;100.00
66887;BME280;67239;51.680;5.976;2024-02-14T12:49:17;101454.56;;;12.14;100.00
66887;BME280;67239;51.680;5.976;2024-02-14T12:51:44;101444.19;;;12.08;100.00